Time;durP1;ratioP1;P1;durP2;ratioP2;P2;SDS_P1;SDS_P2;PMS_P1;PMS_P2;Temp;Humidity;BMP_temperature;BMP_pressure;BME280_temperature;BME280_humidity;BME280_pressure;Samples;Min_cycle;Max_cycle;Signal;HPM_P1;HPM_P2
2022/07/06 00:00:38;;;;;;;4.72;2.08;;;;;;;25.75;36.50;98620.84;5030817;28;20025;-75
2022/07/06 00:03:03;;;;;;;6.60;1.92;;;;;;;25.74;36.04;98625.38;4998090;28;20033;-76
2022/07/06 00:05:29;;;;;;;5.20;1.90;;;;;;;25.72;36.05;98635.47;5030782;28;20038;-77
2022/07/06 00:07:54;;;;;;;4.70;1.90;;;;;;;25.66;36.47;98630.19;5001971;28;20029;-76
2022/07/06 00:10:20;;;;;;;6.55;2.00;;;;;;;25.60;36.43;98635.38;5034735;28;20497;-76
2022/07/06 00:12:45;;;;;;;3.75;2.03;;;;;;;25.56;36.52;98644.03;5001777;28;20049;-77
2022/07/06 00:15:11;;;;;;;6.13;1.80;;;;;;;25.56;36.59;98641.34;5018205;28;20031;-77
2022/07/06 00:17:36;;;;;;;4.45;2.03;;;;;;;25.56;36.64;98638.69;5002489;28;20048;-77
2022/07/06 00:20:02;;;;;;;8.95;2.38;;;;;;;25.63;36.29;98628.75;5001585;28;20036;-76
2022/07/06 00:22:27;;;;;;;7.07;1.83;;;;;;;25.63;35.97;98628.75;5001745;28;20470;-75
2022/07/06 00:24:53;;;;;;;4.28;1.77;;;;;;;25.61;36.09;98634.31;5017880;28;20030;-75
2022/07/06 00:27:18;;;;;;;6.65;1.92;;;;;;;25.69;36.00;98638.56;5018376;28;20060;-76
2022/07/06 00:29:44;;;;;;;5.15;1.90;;;;;;;25.73;35.96;98628.25;5017868;28;20495;-75
2022/07/06 00:32:12;;;;;;;3.13;2.03;;;;;;;25.81;35.93;98622.66;5001413;28;20045;-75
2022/07/06 00:34:40;;;;;;;5.53;2.10;;;;;;;25.73;35.96;98610.38;5017794;28;20048;-75
2022/07/06 00:37:06;;;;;;;;;;;;;;;25.77;36.11;98614.22;5002528;28;20124;-75
2022/07/06 00:39:33;;;;;;;4.68;2.10;;;;;;;25.70;36.02;98597.44;5034002;28;20028;-77
2022/07/06 00:41:58;;;;;;;4.88;1.80;;;;;;;25.73;36.16;98607.72;5017697;28;20037;-87
2022/07/06 00:44:24;;;;;;;3.38;1.80;;;;;;;25.75;36.45;98596.78;5034307;28;20038;-87
2022/07/06 00:46:49;;;;;;;5.20;1.92;;;;;;;25.71;36.48;98595.59;5034456;28;20025;-84
2022/07/06 00:51:59;;;;;;;8.07;2.40;;;;;;;25.66;37.00;98604.25;5035370;28;20040;-86
2022/07/06 00:54:25;;;;;;;8.05;2.05;;;;;;;25.68;36.73;98602.19;5017531;28;20396;-86
2022/07/06 00:56:51;;;;;;;3.72;1.85;;;;;;;25.71;36.90;98590.25;5001082;28;20025;-84
2022/07/06 00:59:16;;;;;;;4.20;1.92;;;;;;;25.78;36.70;98583.81;5001001;28;20473;-84
2022/07/06 01:01:42;;;;;;;5.47;2.25;;;;;;;25.78;36.99;98578.44;5017649;28;20045;-84
2022/07/06 01:04:07;;;;;;;4.32;1.98;;;;;;;25.81;37.11;98580.69;5001183;28;20040;-85
2022/07/06 01:06:33;;;;;;;4.38;2.22;;;;;;;25.80;37.26;98572.88;5035366;28;20038;-87
2022/07/06 01:08:59;;;;;;;3.65;1.90;;;;;;;25.82;36.95;98573.47;5034566;28;20045;-84
2022/07/06 01:11:24;;;;;;;4.47;1.92;;;;;;;25.81;37.06;98566.50;5001818;28;20044;-84
2022/07/06 01:13:50;;;;;;;2.92;2.03;;;;;;;25.78;37.26;98570.44;5000553;28;20049;-84
2022/07/06 01:16:15;;;;;;;4.82;2.08;;;;;;;25.73;37.49;98562.25;5017062;28;20099;-85
2022/07/06 01:18:41;;;;;;;6.85;2.20;;;;;;;25.74;37.55;98560.41;4990753;28;20488;-84
2022/07/06 01:21:11;;;;;;;9.30;2.30;;;;;;;25.73;37.39;98558.75;4990892;28;20128;-86
2022/07/06 01:23:43;;;;;;;5.32;2.00;;;;;;;25.76;37.54;98560.97;5022187;28;20029;-86
2022/07/06 01:26:10;;;;;;;5.82;2.08;;;;;;;25.74;37.74;98547.84;4990330;28;20041;-85
2022/07/06 01:28:36;;;;;;;4.43;2.15;;;;;;;25.77;37.67;98563.44;5007465;28;20032;-86
2022/07/06 01:31:01;;;;;;;6.20;2.30;;;;;;;25.74;37.68;98555.06;4998063;28;20045;-86
2022/07/06 01:33:27;;;;;;;10.27;2.22;;;;;;;25.79;38.01;98558.72;5000591;28;20030;-86
2022/07/06 01:35:52;;;;;;;2.70;1.90;;;;;;;25.76;37.74;98551.13;5027494;28;20046;-85
2022/07/06 01:38:18;;;;;;;3.17;2.17;;;;;;;25.68;38.24;98550.56;5004436;28;20041;-84
2022/07/06 01:40:43;;;;;;;5.85;2.10;;;;;;;25.68;38.21;98554.09;4999825;28;20036;-85
2022/07/06 01:43:09;;;;;;;3.17;2.10;;;;;;;25.70;38.23;98554.69;5017027;28;20405;-85
2022/07/06 01:45:34;;;;;;;5.90;2.38;;;;;;;25.70;37.91;98559.22;5033187;28;20459;-85
2022/07/06 01:47:59;;;;;;;6.05;2.03;;;;;;;25.71;37.97;98555.50;5033035;28;20033;-86
2022/07/06 01:50:25;;;;;;;4.97;2.28;;;;;;;25.73;37.98;98550.72;5000114;28;20477;-85
2022/07/06 01:52:50;;;;;;;3.22;2.22;;;;;;;25.71;38.24;98553.63;5032870;28;20526;-85
2022/07/06 01:55:16;;;;;;;7.43;2.00;;;;;;;25.69;38.23;98542.34;5032758;28;20045;-84
2022/07/06 01:57:41;;;;;;;4.78;2.30;;;;;;;25.67;37.99;98549.78;5016266;28;20187;-86
2022/07/06 02:00:08;;;;;;;3.47;2.20;;;;;;;25.65;38.45;98551.84;5033872;28;20401;-85
2022/07/06 02:02:33;;;;;;;5.03;2.40;;;;;;;25.58;38.26;98549.22;5000875;28;20038;-86
2022/07/06 02:04:58;;;;;;;4.10;2.03;;;;;;;25.51;38.12;98537.78;5016109;28;20053;-85
2022/07/06 02:07:24;;;;;;;4.00;2.30;;;;;;;25.53;38.28;98532.22;5016078;28;20104;-86
2022/07/06 02:09:49;;;;;;;4.60;2.20;;;;;;;25.52;38.58;98535.91;5032317;28;20097;-85
2022/07/06 02:12:15;;;;;;;4.50;2.20;;;;;;;25.48;38.66;98534.75;5033836;28;20030;-85
2022/07/06 02:14:40;;;;;;;9.23;2.20;;;;;;;25.46;38.53;98535.75;5032218;28;20049;-86
2022/07/06 02:17:06;;;;;;;5.10;2.22;;;;;;;25.46;38.58;98537.63;5032707;28;20072;-86
2022/07/06 02:19:31;;;;;;;7.78;2.20;;;;;;;25.41;38.62;98540.13;5015692;28;20033;-87
2022/07/06 02:21:57;;;;;;;6.82;2.40;;;;;;;25.34;38.73;98536.69;5015975;28;20025;-85
2022/07/06 02:24:22;;;;;;;5.47;2.50;;;;;;;25.34;38.90;98532.16;5032156;28;20040;-85
2022/07/06 02:26:47;;;;;;;4.25;2.28;;;;;;;25.34;39.03;98532.16;5032700;28;20030;-85
2022/07/06 02:29:13;;;;;;;6.70;2.45;;;;;;;25.32;39.08;98520.88;5014978;28;20034;-85
2022/07/06 02:31:38;;;;;;;3.72;2.05;;;;;;;25.28;39.11;98522.34;5016148;28;20492;-85
2022/07/06 02:34:04;;;;;;;6.35;2.40;;;;;;;25.23;38.91;98519.47;5015409;28;20103;-85
2022/07/06 02:36:29;;;;;;;9.32;2.75;;;;;;;25.23;39.24;98522.16;5032207;28;20034;-85
2022/07/06 02:38:55;;;;;;;7.90;2.22;;;;;;;25.12;39.03;98523.66;5032031;28;20037;-86
2022/07/06 02:41:20;;;;;;;6.20;2.47;;;;;;;25.08;39.26;98517.94;5015580;28;20029;-86
2022/07/06 02:43:46;;;;;;;7.10;2.38;;;;;;;25.14;39.26;98520.78;5032112;28;20037;-87
2022/07/06 02:46:11;;;;;;;4.88;2.38;;;;;;;25.16;39.25;98524.03;5031928;28;20041;-86
2022/07/06 02:48:37;;;;;;;2.97;2.17;;;;;;;25.19;39.09;98523.63;5015709;28;20120;-86
2022/07/06 02:51:02;;;;;;;3.58;2.20;;;;;;;25.20;39.21;98517.25;5033253;28;20033;-86
2022/07/06 02:53:28;;;;;;;6.57;2.47;;;;;;;25.22;39.33;98517.84;4998901;28;20087;-87
2022/07/06 02:55:53;;;;;;;3.83;2.28;;;;;;;25.22;38.87;98512.50;5015020;28;20036;-86
2022/07/06 02:58:19;;;;;;;5.53;2.22;;;;;;;25.20;38.89;98515.38;5015193;28;20465;-85
2022/07/06 03:00:44;;;;;;;4.55;2.42;;;;;;;25.15;38.90;98504.53;5032953;28;20029;-85
2022/07/06 03:03:10;;;;;;;7.63;2.25;;;;;;;25.23;38.82;98508.81;5015598;28;20053;-85
2022/07/06 03:05:35;;;;;;;4.22;2.00;;;;;;;25.29;38.77;98502.63;5020236;28;20485;-85
2022/07/06 03:08:01;;;;;;;9.98;2.70;;;;;;;25.65;38.29;98509.09;4995185;28;20034;-84
2022/07/06 03:10:26;;;;;;;3.45;2.20;;;;;;;25.96;37.47;98515.34;4995253;28;20022;-84
2022/07/06 03:12:52;;;;;;;6.22;2.50;;;;;;;26.22;37.00;98516.09;5011635;28;20060;-85
2022/07/06 03:15:17;;;;;;;19.27;2.40;;;;;;;26.51;37.25;98511.84;4989538;28;20425;-92
2022/07/06 03:17:42;;;;;;;53.95;3.13;;;;;;;26.89;36.72;98513.41;5020381;28;20096;-91
2022/07/06 03:20:08;;;;;;;28.60;2.80;;;;;;;27.33;36.25;98515.88;5023667;28;20026;-92
2022/07/06 03:22:34;;;;;;;22.73;2.75;;;;;;;27.76;35.41;98526.22;5021364;28;20489;-84
2022/07/06 03:25:00;;;;;;;13.07;2.35;;;;;;;28.10;34.18;98515.75;5012411;28;20042;-87
2022/07/06 03:27:25;;;;;;;13.43;2.30;;;;;;;28.36;33.08;98518.13;4980872;28;20033;-85
2022/07/06 03:29:51;;;;;;;7.75;2.38;;;;;;;28.57;32.97;98520.13;4980626;28;20045;-88
2022/07/06 03:32:16;;;;;;;8.05;2.30;;;;;;;28.87;32.39;98511.84;5014087;28;20052;-90
2022/07/06 03:34:41;;;;;;;6.65;2.35;;;;;;;29.22;32.30;98524.31;4998142;28;20038;-82
2022/07/06 03:37:07;;;;;;;10.07;2.55;;;;;;;29.48;31.71;98524.72;5013290;28;20042;-83
2022/07/06 03:39:33;;;;;;;3.40;2.38;;;;;;;29.73;31.49;98532.34;4995504;28;20077;-84
2022/07/06 03:41:59;;;;;;;5.75;2.30;;;;;;;29.97;31.27;98525.94;4982587;28;20501;-83
2022/07/06 03:44:25;;;;;;;6.57;2.55;;;;;;;30.28;30.90;98522.59;4999373;28;20032;-77
2022/07/06 03:46:52;;;;;;;5.47;2.35;;;;;;;30.55;30.62;98529.09;5016824;28;20034;-78
2022/07/06 03:49:18;;;;;;;4.13;2.28;;;;;;;30.83;30.50;98534.25;4983820;28;20500;-78
2022/07/06 03:51:43;;;;;;;4.63;2.45;;;;;;;31.13;29.94;98529.44;5014741;28;20034;-78
2022/07/06 03:54:09;;;;;;;5.70;2.40;;;;;;;31.45;29.45;98528.59;5015766;28;20107;-78
2022/07/06 03:56:34;;;;;;;4.13;2.50;;;;;;;31.73;27.98;98530.16;5015139;28;20041;-79
2022/07/06 03:59:02;;;;;;;6.28;2.83;;;;;;;32.12;26.00;98526.34;5015276;28;20038;-77
2022/07/06 04:01:27;;;;;;;;;;;;;;;32.44;27.30;98528.91;4982938;28;20527;-79
2022/07/06 04:03:53;;;;;;;6.20;2.72;;;;;;;32.68;27.91;98517.66;5016328;28;19910;-77
2022/07/06 04:06:18;;;;;;;6.45;2.50;;;;;;;33.00;27.18;98520.94;4998872;28;20032;-76
2022/07/06 04:08:44;;;;;;;4.65;2.17;;;;;;;33.37;26.55;98519.06;5015079;28;20465;-77
2022/07/06 04:11:09;;;;;;;7.75;2.40;;;;;;;33.69;24.81;98520.63;4999182;28;20481;-77
2022/07/06 04:13:35;;;;;;;4.95;2.13;;;;;;;33.93;24.32;98515.44;4998391;28;20063;-77
2022/07/06 04:16:00;;;;;;;8.23;2.78;;;;;;;34.24;23.75;98524.31;5015004;28;20026;-78
2022/07/06 04:18:26;;;;;;;9.88;4.13;;;;;;;34.61;23.82;98519.50;4982129;28;20442;-77
2022/07/06 04:20:51;;;;;;;5.78;3.00;;;;;;;34.90;23.97;98519.63;5015006;28;20440;-83
2022/07/06 04:23:17;;;;;;;15.15;3.03;;;;;;;35.58;23.53;98519.88;4987814;28;20489;-82
2022/07/06 04:25:42;;;;;;;7.40;3.15;;;;;;;36.26;22.83;98515.34;5024114;28;20029;-85
2022/07/06 04:28:08;;;;;;;10.30;2.55;;;;;;;36.89;22.17;98530.53;4986011;28;20029;-78
2022/07/06 04:30:33;;;;;;;8.38;2.70;;;;;;;37.53;21.16;98524.56;4981955;28;20030;-81
2022/07/06 04:32:59;;;;;;;10.35;2.88;;;;;;;38.11;20.30;98524.03;4998989;28;20049;-82
2022/07/06 04:35:24;;;;;;;11.32;2.70;;;;;;;38.68;20.31;98531.03;5014803;28;20137;-80
2022/07/06 04:37:50;;;;;;;8.55;2.85;;;;;;;39.18;19.70;98533.69;5014458;28;20551;-79
2022/07/06 04:40:15;;;;;;;7.20;2.45;;;;;;;39.67;19.18;98531.09;5014790;28;20033;-80
2022/07/06 04:42:41;;;;;;;14.23;3.00;;;;;;;40.13;18.81;98542.69;4998065;28;20095;-79
2022/07/06 04:45:07;;;;;;;12.40;2.42;;;;;;;40.58;18.02;98536.19;5014540;28;20030;-79
2022/07/06 04:47:32;;;;;;;12.15;2.92;;;;;;;41.05;17.36;98544.56;4998495;28;20034;-83
2022/07/06 04:49:58;;;;;;;14.25;2.42;;;;;;;41.42;16.80;98547.75;4998186;28;20026;-81
2022/07/06 04:52:23;;;;;;;5.75;2.08;;;;;;;41.80;17.31;98547.00;4981318;28;20099;-82
2022/07/06 04:54:49;;;;;;;9.38;2.38;;;;;;;42.18;16.50;98554.41;5014391;28;20030;-81
2022/07/06 04:57:14;;;;;;;9.00;2.38;;;;;;;42.48;15.89;98548.91;5014779;28;20041;-78
2022/07/06 04:59:40;;;;;;;7.28;2.40;;;;;;;42.83;15.20;98540.41;4998083;28;20030;-82
2022/07/06 05:02:05;;;;;;;9.40;2.30;;;;;;;43.13;15.14;98543.88;4997851;28;20029;-80
2022/07/06 05:04:31;;;;;;;9.55;2.65;;;;;;;43.40;14.80;98551.84;4998117;28;20067;-78
2022/07/06 05:06:56;;;;;;;10.48;2.80;;;;;;;43.62;14.48;98550.63;4998412;28;20037;-81
2022/07/06 05:09:22;;;;;;;9.33;2.70;;;;;;;43.83;14.19;98550.56;5014021;28;20481;-79
2022/07/06 05:11:47;;;;;;;12.93;3.20;;;;;;;44.09;13.90;98562.00;5013870;28;20041;-80
2022/07/06 05:14:13;;;;;;;6.93;3.10;;;;;;;44.40;13.52;98557.88;5013526;28;20445;-82
2022/07/06 05:16:38;;;;;;;14.43;3.50;;;;;;;44.70;13.37;98559.53;4982726;28;20033;-78
2022/07/06 05:19:04;;;;;;;14.90;4.20;;;;;;;45.07;12.94;98556.66;5015178;28;20033;-82
2022/07/06 05:21:29;;;;;;;14.27;3.80;;;;;;;45.35;12.91;98567.66;4998154;28;20037;-82
2022/07/06 05:23:55;;;;;;;15.63;3.13;;;;;;;45.64;11.91;98571.97;5027655;28;20033;-83
2022/07/06 05:26:20;;;;;;;13.60;3.03;;;;;;;45.95;11.65;98575.88;5032365;28;20029;-83
2022/07/06 05:28:46;;;;;;;14.90;3.13;;;;;;;46.25;11.37;98580.16;5015977;28;20037;-82
2022/07/06 05:31:11;;;;;;;16.63;2.70;;;;;;;46.45;10.94;98583.72;5034834;28;20405;-81
2022/07/06 05:33:36;;;;;;;16.27;2.67;;;;;;;46.66;10.91;98572.41;5016802;28;20041;-83
2022/07/06 05:36:02;;;;;;;8.00;2.50;;;;;;;46.86;11.08;98576.75;5033448;28;20484;-82
2022/07/06 05:38:28;;;;;;;10.93;2.80;;;;;;;47.01;10.60;98577.06;5017107;28;20390;-83
2022/07/06 05:40:53;;;;;;;6.67;2.17;;;;;;;47.23;10.62;98572.75;5016508;28;20519;-83
2022/07/06 05:43:18;;;;;;;9.63;2.20;;;;;;;47.38;10.31;98580.16;5000294;28;20029;-83
2022/07/06 05:45:44;;;;;;;15.13;2.20;;;;;;;47.53;10.56;98588.69;5016726;28;20034;-83
2022/07/06 05:50:53;;;;;;;14.70;2.35;;;;;;;47.70;10.56;98584.66;5019643;28;20064;-83
2022/07/06 05:53:19;;;;;;;9.07;2.00;;;;;;;47.79;10.41;98580.47;5017296;28;20042;-82
2022/07/06 05:55:45;;;;;;;7.17;2.10;;;;;;;47.92;10.29;98577.50;5032587;28;20053;-83
2022/07/06 05:58:10;;;;;;;8.77;2.00;;;;;;;48.02;10.24;98585.16;5016275;28;20021;-82
2022/07/06 06:00:36;;;;;;;7.87;1.90;;;;;;;48.15;10.44;98583.00;5032780;28;20044;-82
2022/07/06 06:03:01;;;;;;;8.40;2.30;;;;;;;48.26;10.07;98575.66;5016258;28;20041;-82
2022/07/06 06:05:27;;;;;;;5.57;2.13;;;;;;;48.30;10.59;98579.28;5033853;28;20527;-82
2022/07/06 06:07:52;;;;;;;10.87;2.17;;;;;;;48.36;10.31;98576.97;4999782;28;20033;-81
2022/07/06 06:10:18;;;;;;;4.87;2.00;;;;;;;48.36;10.52;98577.78;5000312;28;20041;-81
2022/07/06 06:12:44;;;;;;;9.23;1.95;;;;;;;48.40;10.48;98569.53;5032409;28;20509;-82
2022/07/06 06:15:10;;;;;;;5.93;2.08;;;;;;;48.42;10.85;98575.50;5016427;28;20473;-82
2022/07/06 06:17:36;;;;;;;7.30;2.25;;;;;;;48.43;10.57;98579.09;5016330;28;20043;-82
2022/07/06 06:20:02;;;;;;;;;;;;;;;48.42;10.52;98578.28;5032632;28;20029;-81
2022/07/06 06:22:27;;;;;;;;;;;;;;;48.41;10.80;98587.78;5033009;28;19912;-82
2022/07/06 06:24:53;;;;;;;4.57;1.80;;;;;;;48.49;11.25;98580.34;5032308;28;19917;-82
2022/07/06 06:27:18;;;;;;;9.63;2.10;;;;;;;48.61;11.06;98577.34;4999470;28;20033;-82
2022/07/06 06:29:44;;;;;;;6.07;2.03;;;;;;;48.69;11.30;98576.25;5032362;28;20037;-80
2022/07/06 06:32:12;;;;;;;4.13;2.07;;;;;;;48.82;10.64;98576.03;5033146;28;20083;-81
2022/07/06 06:34:38;;;;;;;5.80;1.80;;;;;;;48.81;10.99;98574.44;5016060;28;20033;-81
2022/07/06 06:37:04;;;;;;;4.32;1.90;;;;;;;48.29;11.90;98563.06;5032104;28;20069;-81
2022/07/06 06:39:29;;;;;;;6.77;1.77;;;;;;;47.92;11.86;98563.66;5015951;28;20123;-82
2022/07/06 06:41:55;;;;;;;6.20;1.97;;;;;;;48.17;12.13;98561.28;5015495;28;20021;-81
2022/07/06 06:44:22;;;;;;;7.87;2.00;;;;;;;48.28;11.98;98565.00;5015832;28;20030;-80
2022/07/06 06:46:49;;;;;;;4.53;2.10;;;;;;;48.32;12.38;98560.31;5032299;28;20021;-81
2022/07/06 06:49:14;;;;;;;3.75;1.88;;;;;;;48.38;12.46;98552.50;5032435;28;20030;-81
2022/07/06 06:51:40;;;;;;;8.37;1.90;;;;;;;48.39;12.27;98553.28;5015841;28;20033;-81
2022/07/06 06:54:05;;;;;;;3.33;1.83;;;;;;;48.43;12.21;98556.94;5031773;28;20166;-81
2022/07/06 06:56:31;;;;;;;4.97;1.77;;;;;;;48.29;12.55;98547.25;5015505;28;20566;-82
2022/07/06 06:58:56;;;;;;;3.80;1.73;;;;;;;48.22;12.04;98561.00;5015103;28;20545;-82
2022/07/06 07:01:22;;;;;;;4.23;1.87;;;;;;;48.09;12.47;98563.16;5031598;28;20029;-81
2022/07/06 07:03:47;;;;;;;6.90;1.77;;;;;;;47.91;12.29;98549.03;5032195;28;20041;-82
2022/07/06 07:06:12;;;;;;;6.23;2.27;;;;;;;47.78;12.73;98556.75;5032000;28;20096;-82
2022/07/06 07:08:38;;;;;;;10.63;2.07;;;;;;;46.96;13.44;98555.28;5015495;28;20032;-82
2022/07/06 07:11:03;;;;;;;6.73;2.00;;;;;;;45.73;14.95;98551.69;5032567;28;20473;-83
2022/07/06 07:13:29;;;;;;;7.20;2.17;;;;;;;46.06;14.68;98559.59;5015529;28;20103;-81
2022/07/06 07:15:54;;;;;;;4.37;2.40;;;;;;;45.43;15.16;98560.41;5015107;28;20049;-81
2022/07/06 07:18:20;;;;;;;4.83;2.30;;;;;;;44.40;16.13;98566.13;5031981;28;20056;-82
2022/07/06 07:20:45;;;;;;;6.53;2.10;;;;;;;44.16;16.27;98553.19;5032627;28;20455;-82
2022/07/06 07:23:11;;;;;;;6.03;2.07;;;;;;;43.22;17.35;98562.97;5031618;28;20033;-81
2022/07/06 07:25:38;;;;;;;5.53;2.13;;;;;;;42.43;18.14;98560.88;5031476;28;20025;-83
2022/07/06 07:28:04;;;;;;;4.35;2.30;;;;;;;41.86;18.71;98567.63;5031826;28;20035;-83
2022/07/06 07:30:29;;;;;;;7.37;2.30;;;;;;;41.32;19.19;98567.25;5015054;28;20029;-82
2022/07/06 07:32:55;;;;;;;3.93;2.20;;;;;;;40.86;19.83;98570.34;4998660;28;20119;-82
2022/07/06 07:35:21;;;;;;;8.35;2.47;;;;;;;40.36;20.03;98570.72;5032005;28;20052;-83
2022/07/06 07:37:47;;;;;;;4.78;2.67;;;;;;;40.09;20.67;98575.31;5014836;28;20030;-82
2022/07/06 07:40:12;;;;;;;4.63;2.40;;;;;;;40.16;20.54;98570.19;5032112;28;20033;-82
2022/07/06 07:42:40;;;;;;;5.05;2.42;;;;;;;40.02;20.44;98568.69;4999091;28;20420;-82
2022/07/06 07:45:07;;;;;;;6.85;2.85;;;;;;;39.83;20.69;98564.25;5032480;28;20112;-84
2022/07/06 07:47:32;;;;;;;5.68;2.90;;;;;;;39.59;21.12;98559.97;5031634;28;20037;-82
2022/07/06 07:49:58;;;;;;;5.50;2.70;;;;;;;39.54;21.02;98559.31;4998846;28;20052;-84
2022/07/06 07:52:23;;;;;;;4.47;2.40;;;;;;;40.05;20.67;98557.13;5015179;28;20119;-82
2022/07/06 07:54:49;;;;;;;4.55;2.50;;;;;;;40.67;20.03;98558.88;5014723;28;20425;-83
2022/07/06 07:57:14;;;;;;;5.93;2.53;;;;;;;40.20;20.62;98555.88;4998196;28;20049;-82
2022/07/06 07:59:41;;;;;;;7.28;2.67;;;;;;;40.31;20.64;98559.91;5014664;28;20033;-82
2022/07/06 08:02:07;;;;;;;5.10;2.50;;;;;;;41.03;20.05;98557.78;5032230;28;20035;-82
2022/07/06 08:04:33;;;;;;;6.25;3.10;;;;;;;41.37;19.25;98551.47;5030944;28;20413;-82
2022/07/06 08:06:58;;;;;;;6.32;2.65;;;;;;;41.68;18.96;98555.88;5032040;28;20032;-81
2022/07/06 08:09:23;;;;;;;5.22;2.25;;;;;;;41.98;19.12;98555.13;5014586;28;20103;-81
2022/07/06 08:11:49;;;;;;;8.57;2.60;;;;;;;42.27;18.96;98551.59;5032689;28;20034;-82
2022/07/06 08:14:16;;;;;;;5.10;2.50;;;;;;;42.53;18.48;98554.19;5031249;28;20053;-81
2022/07/06 08:16:42;;;;;;;5.85;2.80;;;;;;;42.73;17.85;98552.59;5014822;28;20033;-83
2022/07/06 08:19:08;;;;;;;4.95;2.35;;;;;;;42.89;18.02;98549.22;5014777;28;20025;-82
2022/07/06 08:21:33;;;;;;;7.47;2.40;;;;;;;43.00;18.12;98539.47;5015254;28;20029;-81
2022/07/06 08:24:00;;;;;;;6.10;2.37;;;;;;;43.16;17.64;98539.66;5031314;28;20040;-81
2022/07/06 08:26:26;;;;;;;4.15;2.67;;;;;;;43.30;17.71;98548.38;4998671;28;20033;-82
2022/07/06 08:28:51;;;;;;;7.30;2.80;;;;;;;43.41;17.59;98543.25;5034620;28;20029;-81
2022/07/06 08:31:17;;;;;;;6.27;2.97;;;;;;;43.47;17.22;98541.91;5018298;28;20045;-82
2022/07/06 08:33:44;;;;;;;8.23;3.10;;;;;;;43.47;17.10;98543.84;5018657;28;20037;-82
2022/07/06 08:36:10;;;;;;;;;;;;;;;43.21;17.21;98536.69;5002902;28;20083;-82
2022/07/06 08:38:36;;;;;;;4.83;3.10;;;;;;;43.30;17.55;98548.38;5034674;28;19999;-84
2022/07/06 08:41:02;;;;;;;4.45;3.45;;;;;;;43.28;17.49;98541.63;5018088;28;20040;-81
2022/07/06 08:43:27;;;;;;;6.13;3.07;;;;;;;43.37;17.42;98540.38;5001864;28;20033;-81
2022/07/06 08:45:53;;;;;;;6.30;3.23;;;;;;;43.36;17.35;98544.28;5018990;28;20045;-81
2022/07/06 08:48:19;;;;;;;4.97;3.27;;;;;;;43.30;17.28;98539.31;5018022;28;20031;-82
2022/07/06 08:50:44;;;;;;;4.43;3.47;;;;;;;43.32;17.33;98543.34;5018606;28;20061;-82
2022/07/06 08:53:10;;;;;;;9.20;3.47;;;;;;;43.29;17.46;98548.72;5001492;28;20087;-81
2022/07/06 08:55:35;;;;;;;4.13;3.10;;;;;;;42.66;18.20;98544.88;5017607;28;20033;-82
2022/07/06 08:58:01;;;;;;;5.27;2.97;;;;;;;42.37;18.10;98547.66;5017900;28;20025;-82
2022/07/06 09:00:27;;;;;;;4.40;3.10;;;;;;;41.84;18.56;98552.63;5017656;28;20056;-82
2022/07/06 09:02:56;;;;;;;7.15;3.30;;;;;;;41.75;18.89;98539.75;5018214;28;20048;-83
2022/07/06 09:05:22;;;;;;;6.95;3.50;;;;;;;41.64;18.80;98540.41;5018357;28;20060;-81
2022/07/06 09:07:51;;;;;;;6.03;3.70;;;;;;;41.65;18.88;98544.78;5034082;28;20025;-82
2022/07/06 09:10:18;;;;;;;4.60;3.20;;;;;;;41.52;18.84;98541.13;5017773;28;20036;-82
2022/07/06 09:12:43;;;;;;;5.03;3.42;;;;;;;41.52;19.09;98546.59;5017341;28;20049;-82
2022/07/06 09:15:09;;;;;;;5.65;3.30;;;;;;;41.47;18.96;98544.03;5034630;28;20416;-83
2022/07/06 09:17:38;;;;;;;5.32;3.53;;;;;;;41.38;18.78;98547.59;5017679;28;20029;-82
2022/07/06 09:20:06;;;;;;;6.57;4.20;;;;;;;41.28;19.22;98536.16;5017533;28;20090;-82
2022/07/06 09:22:32;;;;;;;6.38;3.50;;;;;;;41.07;18.64;98545.06;5001149;28;20044;-81
2022/07/06 09:25:12;;;;;;;4.60;3.73;;;;;;;40.97;18.80;98540.72;5001014;28;20030;-81
2022/07/06 09:27:40;;;;;;;12.38;3.40;;;;;;;41.11;18.75;98537.78;5017169;28;20200;-81
2022/07/06 09:30:07;;;;;;;5.80;3.72;;;;;;;41.06;18.64;98540.72;5033672;28;20114;-81
2022/07/06 09:32:37;;;;;;;;;;;;;;;41.15;18.82;98538.75;5017221;28;20033;-84
2022/07/06 09:35:03;;;;;;;5.85;3.83;;;;;;;41.09;19.19;98540.06;5034987;28;20016;-83
2022/07/06 09:37:29;;;;;;;5.43;3.50;;;;;;;40.89;19.49;98532.53;5016969;28;20076;-82
2022/07/06 09:39:54;;;;;;;6.25;3.70;;;;;;;40.61;19.75;98527.34;5032480;28;20458;-81
2022/07/06 09:42:26;;;;;;;4.80;3.40;;;;;;;40.31;19.91;98518.91;5018399;28;20029;-81
2022/07/06 09:44:51;;;;;;;5.25;3.47;;;;;;;40.09;20.19;98525.28;5017172;28;20022;-81
2022/07/06 09:47:16;;;;;;;5.60;3.45;;;;;;;39.81;20.67;98530.97;5017164;28;20025;-82
2022/07/06 09:49:42;;;;;;;8.23;3.65;;;;;;;39.60;20.38;98530.75;5017873;28;20037;-83
2022/07/06 09:52:09;;;;;;;5.38;3.50;;;;;;;39.33;21.08;98528.94;5017133;28;20116;-79
2022/07/06 09:54:36;;;;;;;8.30;3.72;;;;;;;39.08;21.32;98523.03;5033589;28;20021;-83
2022/07/06 09:57:02;;;;;;;7.05;3.85;;;;;;;39.02;21.39;98529.72;5017033;28;20038;-82
2022/07/06 09:59:31;;;;;;;4.45;3.85;;;;;;;38.78;21.74;98522.63;5016843;28;20035;-81
2022/07/06 10:01:58;;;;;;;5.95;3.97;;;;;;;38.58;21.77;98518.41;5016837;28;20032;-84
2022/07/06 10:04:24;;;;;;;4.55;3.70;;;;;;;38.46;22.24;98509.97;5016644;28;20492;-84
2022/07/06 10:06:51;;;;;;;5.43;3.83;;;;;;;38.51;22.47;98512.59;5017131;28;20052;-81
2022/07/06 10:09:18;;;;;;;5.60;3.63;;;;;;;38.27;22.53;98504.66;5017331;28;20388;-81
2022/07/06 10:11:55;;;;;;;8.50;3.60;;;;;;;38.25;22.97;98504.97;5016988;28;20130;-85
2022/07/06 10:14:22;;;;;;;9.18;3.67;;;;;;;38.07;22.95;98512.13;5033280;28;20067;-83
2022/07/06 10:16:48;;;;;;;5.05;3.92;;;;;;;38.10;23.24;98505.28;5016657;28;20037;-81
2022/07/06 10:19:13;;;;;;;4.90;3.50;;;;;;;38.08;23.01;98499.31;5016254;28;20497;-81
2022/07/06 10:21:39;;;;;;;6.30;3.67;;;;;;;37.95;23.25;98500.94;5016908;28;20038;-82
2022/07/06 10:24:05;;;;;;;7.63;3.88;;;;;;;37.84;23.41;98508.50;5000103;28;20075;-82
2022/07/06 10:26:33;;;;;;;4.55;3.60;;;;;;;37.74;23.49;98504.06;5016588;28;20401;-82
2022/07/06 10:28:59;;;;;;;4.35;3.75;;;;;;;37.68;23.50;98499.78;5017009;28;20028;-82
2022/07/06 10:31:24;;;;;;;5.95;3.65;;;;;;;37.64;23.32;98498.81;5000801;28;20067;-84
2022/07/06 10:33:50;;;;;;;7.80;3.30;;;;;;;37.56;23.43;98504.91;5000259;28;20033;-82
2022/07/06 10:36:15;;;;;;;5.28;3.70;;;;;;;37.46;23.45;98512.19;5016655;28;20025;-82
2022/07/06 10:38:41;;;;;;;4.38;3.45;;;;;;;37.39;23.13;98506.31;5016792;28;20452;-82
2022/07/06 10:41:07;;;;;;;6.95;3.10;;;;;;;37.32;23.31;98505.88;5000970;28;20033;-81
2022/07/06 10:43:38;;;;;;;5.60;3.40;;;;;;;37.26;23.15;98496.22;5017462;28;20549;-83
2022/07/06 10:46:11;;;;;;;5.53;3.45;;;;;;;37.18;23.55;98491.41;5018827;28;20079;-83
2022/07/06 10:48:37;;;;;;;4.30;3.42;;;;;;;37.16;23.49;98493.63;5033571;28;20036;-83
2022/07/06 10:51:04;;;;;;;5.07;3.80;;;;;;;37.10;23.81;98493.72;5031778;28;20025;-83
2022/07/06 10:53:56;;;;;;;5.57;3.70;;;;;;;37.04;23.82;98489.47;5016332;28;20041;-83
2022/07/06 10:56:32;;;;;;;5.75;3.25;;;;;;;37.01;23.96;98494.72;4992051;28;20034;-83
2022/07/06 10:59:02;;;;;;;6.95;3.20;;;;;;;36.93;24.09;98498.91;4959459;28;20030;-83
2022/07/06 11:01:28;;;;;;;4.70;3.30;;;;;;;36.96;24.20;98497.50;4959778;28;20125;-82
2022/07/06 11:03:56;;;;;;;4.45;3.45;;;;;;;37.01;24.35;98494.72;4959973;28;20078;-82
2022/07/06 11:06:23;;;;;;;5.65;3.40;;;;;;;37.06;24.39;98491.91;4975500;28;20034;-84
2022/07/06 11:09:02;;;;;;;3.80;3.30;;;;;;;37.10;24.02;98482.84;4992187;28;20121;-82
2022/07/06 11:11:33;;;;;;;6.55;3.22;;;;;;;37.13;24.14;98481.44;4991785;28;20089;-84
2022/07/06 11:14:01;;;;;;;5.97;3.67;;;;;;;37.11;23.97;98465.41;4991218;28;20077;-84
2022/07/06 11:16:34;;;;;;;5.90;3.47;;;;;;;37.09;24.02;98466.81;4991322;28;20038;-83
2022/07/06 11:19:04;;;;;;;5.43;3.30;;;;;;;37.04;24.01;98475.09;4959389;28;20081;-83
2022/07/06 11:21:39;;;;;;;7.28;3.10;;;;;;;37.03;23.93;98465.28;4975272;28;20038;-82
2022/07/06 11:24:06;;;;;;;9.73;3.40;;;;;;;37.00;24.12;98466.69;4975186;28;20073;-83
2022/07/06 11:26:32;;;;;;;4.38;3.33;;;;;;;36.92;24.31;98468.16;4966464;28;20145;-83
2022/07/06 11:28:58;;;;;;;5.93;3.50;;;;;;;36.88;24.93;98464.44;5014989;28;20043;-83
2022/07/06 11:31:23;;;;;;;5.35;3.33;;;;;;;36.83;25.06;98474.59;5014999;28;20025;-81
2022/07/06 11:33:49;;;;;;;7.60;3.20;;;;;;;36.74;25.06;98474.47;5015297;28;20072;-83